CheckWX is a tool to help pilots better visualize weather data.  It is not intended as a substitute for an official pre-flight weather briefing.

20:24:45 UTC

F44 METAR
Athens Municipal Airport
Athens, Texas, USA
Current

30 mins ago

KF44 231955Z AUTO 17005KT 10SM BKN023 BKN034 23/18 A3000 RMK AO2
Observed
Apr-23 @ 19:55 UTC
Wind
  • 170° at 5 KTS
Visibility
10 SM
Flight Rules
MVFR
Cloud Levels
  • Broken at 2,300' AGL
  • Broken at 3,400' AGL
Temperature
23°C / 73°F
Dewpoint
18°C / 64°F
Humidity
74%
Altimeter
30" Hg
Pressure
1015.92 hPa
Previous

50 mins ago

KF44 231935Z AUTO 16004KT 10SM SCT023 BKN060 BKN070 23/18 A3001 RMK AO2
Observed
Apr-23 @ 19:35 UTC
Wind
  • 160° at 4 KTS
Visibility
10 SM
Flight Rules
VFR
Cloud Levels
  • Scattered at 2,300' AGL
  • Broken at 6,000' AGL
  • Broken at 7,000' AGL
Temperature
23°C / 73°F
Dewpoint
18°C / 64°F
Humidity
74%
Altimeter
30.01" Hg
Pressure
1016.22 hPa
Previous

1 hour ago

KF44 231915Z AUTO 14003KT 10SM SCT050 BKN060 OVC080 23/18 A3002 RMK AO2
Observed
Apr-23 @ 19:15 UTC
Wind
  • 140° at 3 KTS
Visibility
10 SM
Flight Rules
VFR
Cloud Levels
  • Scattered at 5,000' AGL
  • Broken at 6,000' AGL
  • Overcast at 8,000' AGL
Temperature
23°C / 73°F
Dewpoint
18°C / 64°F
Humidity
74%
Altimeter
30.02" Hg
Pressure
1016.62 hPa